createdAt,value
2019-03-04T00:01:40.173Z,97467.14
2019-03-04T00:04:08.416Z,97463.98
2019-03-04T00:06:36.704Z,97460.09
2019-03-04T00:09:05.824Z,97454.65
2019-03-04T00:11:34.118Z,97453.41
2019-03-04T00:14:05.393Z,97449.64
2019-03-04T00:16:33.675Z,97448.45
2019-03-04T00:19:01.926Z,97444.91
2019-03-04T00:21:30.206Z,97435.74
2019-03-04T00:23:58.491Z,97432.84
2019-03-04T00:26:26.741Z,97426.87
2019-03-04T00:28:55.021Z,97419.63
2019-03-04T00:31:23.270Z,97410.50
2019-03-04T00:33:51.591Z,97405.23
2019-03-04T00:36:19.874Z,97398.46
2019-03-04T00:38:48.161Z,97392.59
2019-03-04T00:41:16.451Z,97394.19
2019-03-04T00:43:44.704Z,97395.45
2019-03-04T00:46:12.964Z,97382.45
2019-03-04T00:48:41.242Z,97368.44
2019-03-04T00:51:10.291Z,97370.51
2019-03-04T00:53:38.553Z,97371.55
2019-03-04T00:56:06.814Z,97387.17
2019-03-04T00:58:35.069Z,97380.48
2019-03-04T01:01:03.321Z,97386.94
2019-03-04T01:03:31.593Z,97385.70
2019-03-04T01:05:59.841Z,97383.62
2019-03-04T01:08:28.117Z,97377.75
2019-03-04T01:10:56.358Z,97376.48
2019-03-04T01:13:24.639Z,97373.38
2019-03-04T01:15:52.887Z,97366.58
2019-03-04T01:18:21.177Z,97362.00
2019-03-04T01:20:49.427Z,97355.77
2019-03-04T01:23:17.707Z,97361.08
2019-03-04T01:25:47.390Z,97358.06
2019-03-04T01:28:15.661Z,97354.29
2019-03-04T01:30:43.905Z,97347.48
2019-03-04T01:33:12.174Z,97341.48
2019-03-04T01:35:41.765Z,97344.51
2019-03-04T01:38:10.048Z,97345.17
2019-03-04T01:40:38.337Z,97347.83
2019-03-04T01:43:06.579Z,97330.80
2019-03-04T01:45:34.904Z,97332.53
2019-03-04T01:48:03.162Z,97324.45
2019-03-04T01:50:31.411Z,97311.36
2019-03-04T01:52:59.697Z,97312.63
2019-03-04T01:55:27.958Z,97299.60
2019-03-04T01:57:56.206Z,97301.53
2019-03-04T02:00:24.467Z,97295.63
2019-03-04T02:02:54.261Z,97283.69
2019-03-04T02:05:22.510Z,97277.28
2019-03-04T02:07:51.758Z,97281.23
2019-03-04T02:10:20.372Z,97266.73
2019-03-04T02:12:48.901Z,97289.06
2019-03-04T02:15:20.979Z,97266.06
2019-03-04T02:17:49.265Z,97285.02
2019-03-04T02:20:18.791Z,97288.30
2019-03-04T02:22:48.240Z,97287.71
2019-03-04T02:25:20.903Z,97283.16
2019-03-04T02:27:52.224Z,97285.31
2019-03-04T02:30:22.922Z,97292.47
2019-03-04T02:32:51.181Z,97287.09
2019-03-04T02:35:19.427Z,97281.92
2019-03-04T02:37:47.733Z,97276.03
2019-03-04T02:40:16.008Z,97289.50
2019-03-04T02:42:44.251Z,97281.47
2019-03-04T02:45:15.814Z,97287.34
2019-03-04T02:47:44.067Z,97290.82
2019-03-04T02:50:12.334Z,97288.56
2019-03-04T02:52:40.587Z,97280.09
2019-03-04T02:55:10.345Z,97273.09
2019-03-04T02:57:40.612Z,97270.30
2019-03-04T03:00:12.391Z,97270.06
2019-03-04T03:02:42.293Z,97266.52
2019-03-04T03:05:10.559Z,97272.02
2019-03-04T03:07:38.837Z,97272.51
2019-03-04T03:10:09.429Z,97288.98
2019-03-04T03:12:37.720Z,97288.44
2019-03-04T03:15:08.406Z,97289.36
2019-03-04T03:17:36.634Z,97299.25
2019-03-04T03:20:10.696Z,97300.73
2019-03-04T03:22:38.980Z,97307.78
2019-03-04T03:25:09.369Z,97289.72
2019-03-04T03:27:37.657Z,97295.72
2019-03-04T03:30:11.808Z,97299.79
2019-03-04T03:32:40.115Z,97304.88
2019-03-04T03:35:09.577Z,97300.41
2019-03-04T03:37:37.899Z,97293.68
2019-03-04T03:40:12.438Z,97309.06
2019-03-04T03:42:40.691Z,97303.94
2019-03-04T03:45:10.311Z,97304.89
2019-03-04T03:47:38.570Z,97290.91
2019-03-04T03:50:12.142Z,97289.97
2019-03-04T03:52:40.430Z,97291.36
2019-03-04T03:55:11.032Z,97288.13
2019-03-04T03:57:39.325Z,97287.69
2019-03-04T04:00:22.039Z,97277.89
2019-03-04T04:02:50.334Z,97273.20
2019-03-04T04:05:18.595Z,97262.23
2019-03-04T04:07:46.877Z,97262.27
2019-03-04T04:10:16.578Z,97262.61
2019-03-04T04:12:46.399Z,97268.12
2019-03-04T04:15:15.810Z,97259.16
2019-03-04T04:17:44.063Z,97256.41
2019-03-04T04:20:12.877Z,97241.56
2019-03-04T04:22:41.135Z,97235.70
2019-03-04T04:25:11.880Z,97244.46
2019-03-04T04:27:40.172Z,97249.72
2019-03-04T04:30:11.895Z,97246.28
2019-03-04T04:32:43.609Z,97244.89
2019-03-04T04:35:11.893Z,97235.35
2019-03-04T04:37:40.158Z,97235.91
2019-03-04T04:40:11.049Z,97243.53
2019-03-04T04:42:39.309Z,97241.91
2019-03-04T04:45:08.924Z,97239.14
2019-03-04T04:47:38.343Z,97239.41
2019-03-04T04:50:09.896Z,97240.78
2019-03-04T04:52:38.184Z,97246.27
2019-03-04T04:55:06.441Z,97232.50
2019-03-04T04:57:34.734Z,97233.06
2019-03-04T05:00:03.022Z,97239.95
2019-03-04T05:02:31.275Z,97235.23
2019-03-04T05:05:01.890Z,97243.75
2019-03-04T05:07:30.145Z,97241.20
2019-03-04T05:09:58.423Z,97238.23
2019-03-04T05:12:26.703Z,97239.86
2019-03-04T05:14:54.986Z,97229.16
2019-03-04T05:17:23.247Z,97235.17
2019-03-04T05:19:51.542Z,97241.01
2019-03-04T05:22:19.884Z,97230.11
2019-03-04T05:24:48.181Z,97233.77
2019-03-04T05:27:16.445Z,97239.38
2019-03-04T05:29:45.986Z,97233.07
2019-03-04T05:32:14.483Z,97231.66
2019-03-04T05:34:42.747Z,97225.10
2019-03-04T05:37:11.012Z,97214.83
2019-03-04T05:39:39.282Z,97214.60
2019-03-04T05:42:07.558Z,97212.17
2019-03-04T05:44:35.851Z,97208.30
2019-03-04T05:47:04.113Z,97201.50
2019-03-04T05:49:32.404Z,97203.44
2019-03-04T05:52:00.740Z,97194.52
2019-03-04T05:54:28.992Z,97196.50
2019-03-04T05:56:57.276Z,97181.11
2019-03-04T05:59:26.758Z,97184.91
2019-03-04T06:01:58.275Z,97174.09
2019-03-04T06:04:26.539Z,97172.25
2019-03-04T06:06:59.369Z,97177.53
2019-03-04T06:09:27.626Z,97180.19
2019-03-04T06:11:55.923Z,97177.67
2019-03-04T06:14:24.188Z,97183.77
2019-03-04T06:16:52.491Z,97180.98
2019-03-04T06:19:20.764Z,97176.62
2019-03-04T06:21:49.048Z,97174.55
2019-03-04T06:24:17.302Z,97167.46
2019-03-04T06:26:45.578Z,97167.64
2019-03-04T06:29:13.848Z,97164.34
2019-03-04T06:31:42.172Z,97155.63
2019-03-04T06:34:10.408Z,97155.02
2019-03-04T06:36:38.687Z,97153.38
2019-03-04T06:39:07.042Z,97152.48
2019-03-04T06:41:35.327Z,97153.42
2019-03-04T06:44:03.606Z,97156.17
2019-03-04T06:46:31.902Z,97154.58
2019-03-04T06:49:00.161Z,97150.90
2019-03-04T06:51:36.834Z,97147.22
2019-03-04T06:54:08.444Z,97148.01
2019-03-04T06:56:39.983Z,97159.95
2019-03-04T06:59:29.403Z,97150.17
2019-03-04T07:02:11.000Z,97155.59
2019-03-04T07:04:42.517Z,97156.61
2019-03-04T07:07:10.783Z,97149.07
2019-03-04T07:09:40.679Z,97151.23
2019-03-04T07:12:08.950Z,97142.51
2019-03-04T07:14:37.214Z,97147.69
2019-03-04T07:17:05.477Z,97150.41
2019-03-04T07:19:33.749Z,97141.13
2019-03-04T07:22:02.006Z,97140.98
2019-03-04T07:24:30.293Z,97122.23
2019-03-04T07:26:58.568Z,97123.86
2019-03-04T07:29:26.852Z,97116.90
2019-03-04T07:31:55.128Z,97117.81
2019-03-04T07:34:23.401Z,97117.23
2019-03-04T07:36:51.671Z,97110.52
2019-03-04T07:39:19.970Z,97117.42
2019-03-04T07:41:48.228Z,97122.19
2019-03-04T07:44:16.496Z,97139.51
2019-03-04T07:46:44.763Z,97138.05
2019-03-04T07:49:13.157Z,97126.84
2019-03-04T07:51:41.412Z,97114.72
2019-03-04T07:54:09.668Z,97104.32
2019-03-04T07:56:38.919Z,97105.13
2019-03-04T07:59:08.435Z,97102.34
2019-03-04T08:01:39.773Z,97093.02
2019-03-04T08:04:08.032Z,97086.25
2019-03-04T08:06:36.301Z,97069.84
2019-03-04T08:09:20.151Z,97085.39
2019-03-04T08:12:03.357Z,97080.64
2019-03-04T08:14:31.623Z,97078.53
2019-03-04T08:16:59.912Z,97077.72
2019-03-04T08:19:28.170Z,97073.86
2019-03-04T08:21:56.436Z,97072.67
2019-03-04T08:24:24.697Z,97078.69
2019-03-04T08:26:52.991Z,97079.20
2019-03-04T08:29:21.279Z,97076.70
2019-03-04T08:31:49.542Z,97078.48
2019-03-04T08:34:17.816Z,97085.12
2019-03-04T08:36:46.072Z,97076.08
2019-03-04T08:39:14.360Z,97080.28
2019-03-04T08:41:42.632Z,97074.55
2019-03-04T08:44:10.891Z,97062.48
2019-03-04T08:46:39.174Z,97043.56
2019-03-04T08:49:07.439Z,97036.55
2019-03-04T08:51:35.718Z,97043.37
2019-03-04T08:54:03.989Z,97041.78
2019-03-04T08:56:32.278Z,97057.05
2019-03-04T08:59:00.534Z,97055.17
2019-03-04T09:01:31.124Z,97055.02
2019-03-04T09:03:58.825Z,97052.90
2019-03-04T09:06:27.080Z,97061.81
2019-03-04T09:08:55.355Z,97049.47
2019-03-04T09:11:23.651Z,97033.77
2019-03-04T09:13:51.905Z,97017.97
2019-03-04T09:16:20.184Z,97016.68
2019-03-04T09:18:48.465Z,97031.09
2019-03-04T09:21:16.733Z,97027.06
2019-03-04T09:23:44.989Z,97016.70
2019-03-04T09:26:13.255Z,97014.69
2019-03-04T09:28:41.517Z,97018.31
2019-03-04T09:31:09.808Z,97014.16
2019-03-04T09:33:39.713Z,97011.70
2019-03-04T09:36:08.009Z,96998.95
2019-03-04T09:38:36.283Z,96977.77
2019-03-04T09:41:04.553Z,96954.59
2019-03-04T09:43:32.813Z,96971.59
2019-03-04T09:46:01.101Z,96968.55
2019-03-04T09:48:29.358Z,96962.89
2019-03-04T09:50:57.604Z,96966.29
2019-03-04T09:53:38.832Z,96960.56
2019-03-04T09:56:00.007Z,96964.29
2019-03-04T09:58:28.261Z,96951.37
2019-03-04T10:01:14.852Z,96923.84
2019-03-04T10:03:52.526Z,96922.37
2019-03-04T10:06:42.158Z,96916.63
2019-03-04T10:09:24.953Z,96921.57
2019-03-04T10:12:25.492Z,96928.69
2019-03-04T10:15:16.756Z,96904.11
2019-03-04T10:17:54.179Z,96897.71
2019-03-04T10:20:53.144Z,96889.88
2019-03-04T10:23:30.467Z,96887.39
2019-03-04T10:26:36.726Z,96878.33
2019-03-04T10:29:27.560Z,96873.09
2019-03-04T10:32:04.635Z,96872.38
2019-03-04T10:34:51.447Z,96875.80
2019-03-04T10:37:40.896Z,96872.19
2019-03-04T10:40:48.718Z,96866.67
2019-03-04T10:43:27.725Z,96858.47
2019-03-04T10:46:08.174Z,96831.11
2019-03-04T10:48:36.438Z,96817.89
2019-03-04T10:51:04.709Z,96817.56
2019-03-04T10:53:33.011Z,96826.15
2019-03-04T10:56:01.299Z,96824.44
2019-03-04T10:58:29.597Z,96837.53
2019-03-04T11:00:58.012Z,96837.85
2019-03-04T11:03:26.308Z,96838.24
2019-03-04T11:05:54.563Z,96847.05
2019-03-04T11:08:22.855Z,96838.28
2019-03-04T11:10:51.166Z,96827.07
2019-03-04T11:13:19.452Z,96828.53
2019-03-04T11:15:50.040Z,96823.30
2019-03-04T11:18:18.341Z,96834.61
2019-03-04T11:20:46.595Z,96822.59
2019-03-04T11:23:15.180Z,96825.11
2019-03-04T11:25:43.658Z,96815.80
2019-03-04T11:28:11.920Z,96817.99
2019-03-04T11:30:40.205Z,96804.42
2019-03-04T11:33:08.461Z,96804.45
2019-03-04T11:35:36.750Z,96797.47
2019-03-04T11:38:06.718Z,96793.11
2019-03-04T11:40:44.253Z,96774.56
2019-03-04T11:43:12.537Z,96773.94
2019-03-04T11:45:40.839Z,96777.16
2019-03-04T11:48:10.159Z,96785.08
2019-03-04T11:50:38.468Z,96771.28
2019-03-04T11:53:06.727Z,96758.42
2019-03-04T11:55:35.025Z,96766.16
2019-03-04T11:58:03.295Z,96762.23
2019-03-04T12:00:39.496Z,96749.92
2019-03-04T12:03:07.823Z,96741.38
2019-03-04T12:05:36.095Z,96742.76
2019-03-04T12:08:06.423Z,96744.34
2019-03-04T12:10:34.376Z,96734.40
2019-03-04T12:13:02.673Z,96722.26
2019-03-04T12:15:30.928Z,96715.70
2019-03-04T12:17:59.196Z,96715.91
2019-03-04T12:20:27.484Z,96722.27
2019-03-04T12:22:55.747Z,96712.51
2019-03-04T12:25:24.035Z,96713.12
2019-03-04T12:27:52.292Z,96699.98
2019-03-04T12:30:25.254Z,96697.59
2019-03-04T12:32:54.163Z,96690.25
2019-03-04T12:35:22.504Z,96684.41
2019-03-04T12:37:51.219Z,96671.30
2019-03-04T12:40:21.022Z,96659.55
2019-03-04T12:42:49.315Z,96662.95
2019-03-04T12:45:20.450Z,96645.09
2019-03-04T12:47:48.697Z,96641.77
2019-03-04T12:50:25.154Z,96633.20
2019-03-04T12:52:53.894Z,96622.50
2019-03-04T12:55:22.210Z,96611.91
2019-03-04T12:57:50.478Z,96612.17
2019-03-04T13:00:24.766Z,96606.97
2019-03-04T13:02:57.634Z,96607.62
2019-03-04T13:05:23.400Z,96602.49
2019-03-04T13:07:51.683Z,96594.23
2019-03-04T13:10:20.452Z,96584.34
2019-03-04T13:12:48.737Z,96575.14
2019-03-04T13:15:25.677Z,96568.84
2019-03-04T13:17:53.947Z,96557.99
2019-03-04T13:20:23.767Z,96542.66
2019-03-04T13:22:52.027Z,96539.36
2019-03-04T13:25:21.486Z,96533.41
2019-03-04T13:27:49.759Z,96526.93
2019-03-04T13:30:26.167Z,96526.80
2019-03-04T13:39:45.381Z,96507.66
2019-03-04T13:42:13.641Z,96499.60
2019-03-04T13:44:41.932Z,96493.87
2019-03-04T13:47:10.224Z,96483.12
2019-03-04T13:49:38.488Z,96468.44
2019-03-04T13:52:07.791Z,96469.66
2019-03-04T13:54:36.050Z,96462.74
2019-03-04T13:57:04.341Z,96448.86
2019-03-04T13:59:32.595Z,96451.75
2019-03-04T14:02:00.876Z,96442.36
2019-03-04T14:04:29.152Z,96436.19
2019-03-04T14:06:57.423Z,96440.50
2019-03-04T14:09:27.416Z,96436.99
2019-03-04T14:11:55.688Z,96432.65
2019-03-04T14:14:25.593Z,96437.48
2019-03-04T14:16:53.890Z,96433.84
2019-03-04T14:19:24.180Z,96438.88
2019-03-04T14:21:52.170Z,96440.66
2019-03-04T14:24:20.428Z,96432.73
2019-03-04T14:26:48.725Z,96428.96
2019-03-04T14:29:16.984Z,96423.88
2019-03-04T14:31:45.249Z,96420.52
2019-03-04T14:34:14.750Z,96422.25
2019-03-04T14:36:42.966Z,96432.43
2019-03-04T14:39:13.529Z,96433.84
2019-03-04T14:41:41.819Z,96424.69
2019-03-04T14:44:10.085Z,96426.64
2019-03-04T14:46:38.375Z,96423.86
2019-03-04T14:49:06.641Z,96422.05
2019-03-04T14:51:34.929Z,96413.05
2019-03-04T14:54:03.195Z,96422.98
2019-03-04T14:56:31.489Z,96433.31
2019-03-04T14:59:10.220Z,96444.31
2019-03-04T15:01:31.407Z,96452.22
2019-03-04T15:04:02.590Z,96451.35
2019-03-04T15:06:32.386Z,96448.30
2019-03-04T15:09:00.657Z,96451.50
2019-03-04T15:11:28.928Z,96464.17
2019-03-04T15:13:57.226Z,96477.39
2019-03-04T15:16:25.498Z,96480.37
2019-03-04T15:18:53.784Z,96480.67
2019-03-04T15:21:22.085Z,96482.19
2019-03-04T15:23:50.384Z,96488.42
2019-03-04T15:26:18.650Z,96486.73
2019-03-04T15:28:47.080Z,96482.80
2019-03-04T15:31:15.405Z,96486.50
2019-03-04T15:33:43.666Z,96484.39
2019-03-04T15:36:11.959Z,96477.83
2019-03-04T15:38:40.238Z,96482.27
2019-03-04T15:41:08.498Z,96485.84
2019-03-04T15:43:36.787Z,96478.52
2019-03-04T15:46:05.047Z,96482.47
2019-03-04T15:48:35.438Z,96478.95
2019-03-04T15:51:03.703Z,96476.36
2019-03-04T15:53:33.233Z,96467.19
2019-03-04T15:56:02.796Z,96467.23
2019-03-04T15:58:31.012Z,96468.38
2019-03-04T16:00:59.303Z,96469.77
2019-03-04T16:03:27.568Z,96467.83
2019-03-04T16:05:55.876Z,96469.61
2019-03-04T16:08:24.113Z,96471.36
2019-03-04T16:10:52.418Z,96456.87
2019-03-04T16:13:20.677Z,96457.86
2019-03-04T16:15:48.955Z,96459.06
2019-03-04T16:18:17.225Z,96460.23
2019-03-04T16:20:45.526Z,96460.64
2019-03-04T16:23:14.937Z,96459.64
2019-03-04T16:25:43.249Z,96449.13
2019-03-04T16:28:17.268Z,96457.24
2019-03-04T16:30:47.333Z,96456.07
2019-03-04T16:33:15.604Z,96461.98
2019-03-04T16:35:43.893Z,96467.61
2019-03-04T16:38:13.020Z,96470.00
2019-03-04T16:40:41.326Z,96470.97
2019-03-04T16:43:09.632Z,96475.55
2019-03-04T16:45:38.967Z,96479.33
2019-03-04T16:48:07.266Z,96478.29
2019-03-04T16:50:42.840Z,96482.28
2019-03-04T16:53:26.653Z,96483.70
2019-03-04T16:55:54.930Z,96482.92
2019-03-04T16:58:23.217Z,96493.00
2019-03-04T17:00:51.795Z,96507.12
2019-03-04T17:03:20.062Z,96505.13
2019-03-04T17:05:48.338Z,96501.94
2019-03-04T17:08:16.639Z,96500.57
2019-03-04T17:10:45.095Z,96510.51
2019-03-04T17:13:13.362Z,96515.97
2019-03-04T17:15:41.657Z,96508.22
2019-03-04T17:18:09.918Z,96518.22
2019-03-04T17:20:39.119Z,96525.81
2019-03-04T17:23:07.486Z,96538.55
2019-03-04T17:25:37.675Z,96526.03
2019-03-04T17:28:05.969Z,96533.97
2019-03-04T17:30:34.262Z,96545.28
2019-03-04T17:33:02.535Z,96542.52
2019-03-04T17:35:30.831Z,96548.83
2019-03-04T17:37:59.105Z,96549.28
2019-03-04T17:40:33.001Z,96558.16
2019-03-04T17:43:01.293Z,96581.09
2019-03-04T17:45:29.565Z,96583.59
2019-03-04T17:47:58.908Z,96596.32
2019-03-04T17:50:37.832Z,96601.92
2019-03-04T17:53:08.444Z,96613.77
2019-03-04T17:55:36.724Z,96602.88
2019-03-04T17:58:04.980Z,96601.45
2019-03-04T18:00:35.599Z,96600.94
2019-03-04T18:03:03.854Z,96597.25
2019-03-04T18:05:32.129Z,96601.25
2019-03-04T18:08:00.407Z,96595.69
2019-03-04T18:10:28.692Z,96605.31
2019-03-04T18:12:59.218Z,96606.97
2019-03-04T18:15:33.249Z,96610.63
2019-03-04T18:18:01.505Z,96612.16
2019-03-04T18:20:34.381Z,96606.93
2019-03-04T18:22:59.764Z,96622.35
2019-03-04T18:25:34.378Z,96624.33
2019-03-04T18:28:05.928Z,96625.64
2019-03-04T18:31:08.806Z,96633.45
2019-03-04T18:33:40.340Z,96646.75
2019-03-04T18:36:40.499Z,96632.16
2019-03-04T18:39:29.940Z,96620.70
2019-03-04T18:42:25.294Z,96618.30
2019-03-04T18:45:08.722Z,96624.73
2019-03-04T18:47:56.234Z,96621.62
2019-03-04T18:50:25.449Z,96602.67
2019-03-04T18:52:55.182Z,96597.36
2019-03-04T18:55:23.471Z,96582.20
2019-03-04T18:57:51.736Z,96587.59
2019-03-04T19:00:26.092Z,96592.75
2019-03-04T19:02:54.356Z,96564.17
2019-03-04T19:08:13.399Z,96552.45
2019-03-04T19:10:41.665Z,96569.53
2019-03-04T19:13:09.959Z,96577.61
2019-03-04T19:15:38.374Z,96569.36
2019-03-04T19:18:06.632Z,96572.38
2019-03-04T19:20:34.932Z,96578.59
2019-03-04T19:23:03.187Z,96585.86
2019-03-04T19:25:31.479Z,96568.47
2019-03-04T19:28:02.181Z,96547.88
2019-03-04T19:30:30.541Z,96545.34
2019-03-04T19:32:58.807Z,96552.76
2019-03-04T19:35:27.097Z,96548.37
2019-03-04T19:37:55.396Z,96557.97
2019-03-04T19:40:23.649Z,96560.95
2019-03-04T19:42:51.946Z,96558.65
2019-03-04T19:45:20.262Z,96562.47
2019-03-04T19:47:48.555Z,96553.19
2019-03-04T19:50:16.818Z,96559.58
2019-03-04T19:52:45.177Z,96551.89
2019-03-04T19:55:18.868Z,96535.16
2019-03-04T19:57:47.082Z,96539.22
2019-03-04T20:00:25.023Z,96533.25
2019-03-04T20:02:53.473Z,96540.16
2019-03-04T20:05:23.125Z,96555.56
2019-03-04T20:07:51.373Z,96556.72
2019-03-04T20:10:19.646Z,96562.95
2019-03-04T20:12:47.972Z,96570.44
2019-03-04T20:15:36.358Z,96572.81
2019-03-04T20:18:06.302Z,96585.38
2019-03-04T20:20:34.554Z,96581.83
2019-03-04T20:23:02.839Z,96582.41
2019-03-04T20:25:31.103Z,96586.02
2019-03-04T20:27:59.369Z,96583.28
2019-03-04T20:30:27.640Z,96586.20
2019-03-04T20:32:58.288Z,96587.95
2019-03-04T20:35:25.938Z,96586.20
2019-03-04T20:38:15.544Z,96587.72
2019-03-04T20:40:43.813Z,96588.97
2019-03-04T20:43:12.105Z,96596.70
2019-03-04T20:45:40.362Z,96587.15
2019-03-04T20:48:08.634Z,96582.84
2019-03-04T20:50:36.908Z,96590.11
2019-03-04T20:53:05.201Z,96596.28
2019-03-04T20:55:33.461Z,96594.44
2019-03-04T20:58:03.485Z,96595.19
2019-03-04T21:00:36.181Z,96604.97
2019-03-04T21:03:05.821Z,96600.07
2019-03-04T21:05:34.389Z,96602.41
2019-03-04T21:08:02.909Z,96601.78
2019-03-04T21:10:31.185Z,96594.73
2019-03-04T21:13:07.159Z,96599.27
2019-03-04T21:15:35.436Z,96591.11
2019-03-04T21:18:05.979Z,96588.23
2019-03-04T21:20:33.685Z,96592.59
2019-03-04T21:23:01.971Z,96599.75
2019-03-04T21:25:41.588Z,96593.52
2019-03-04T21:28:16.130Z,96592.80
2019-03-04T21:31:06.998Z,96608.84
2019-03-04T21:33:56.708Z,96602.23
2019-03-04T21:36:44.827Z,96608.19
2019-03-04T21:39:19.294Z,96609.41
2019-03-04T21:41:53.636Z,96614.27
2019-03-04T21:44:41.591Z,96606.94
2019-03-04T21:47:25.180Z,96597.36
2019-03-04T21:49:53.565Z,96591.02
2019-03-04T21:52:42.849Z,96584.88
2019-03-04T21:55:17.178Z,96590.62
2019-03-04T21:57:48.204Z,96599.23
2019-03-04T22:00:23.792Z,96598.53
2019-03-04T22:02:58.587Z,96605.92
2019-03-04T22:05:26.844Z,96592.66
2019-03-04T22:07:55.100Z,96594.32
2019-03-04T22:10:23.398Z,96616.23
2019-03-04T22:12:51.645Z,96610.31
2019-03-04T22:15:19.939Z,96617.19
2019-03-04T22:17:48.195Z,96612.80
2019-03-04T22:20:16.516Z,96614.31
2019-03-04T22:22:44.814Z,96619.55
2019-03-04T22:25:14.226Z,96619.13
2019-03-04T22:27:42.479Z,96623.27
2019-03-04T22:30:18.376Z,96627.23
2019-03-04T22:32:46.645Z,96621.20
2019-03-04T22:35:17.162Z,96626.70
2019-03-04T22:37:45.532Z,96634.13
2019-03-04T22:40:22.457Z,96640.60
2019-03-04T22:42:50.808Z,96637.73
2019-03-04T22:45:20.483Z,96635.75
2019-03-04T22:47:50.274Z,96635.11
2019-03-04T22:50:20.499Z,96639.66
2019-03-04T22:52:49.339Z,96639.48
2019-03-04T22:55:29.244Z,96634.14
2019-03-04T22:57:57.516Z,96634.02
2019-03-04T23:00:54.744Z,96627.55
2019-03-04T23:03:24.484Z,96630.48
2019-03-04T23:05:55.587Z,96629.69
2019-03-04T23:08:23.841Z,96635.09
2019-03-04T23:10:52.111Z,96642.41
2019-03-04T23:13:41.074Z,96641.16
2019-03-04T23:16:15.651Z,96642.12
2019-03-04T23:18:46.986Z,96636.55
2019-03-04T23:21:15.238Z,96645.86
2019-03-04T23:23:43.532Z,96639.88
2019-03-04T23:26:11.784Z,96625.41
2019-03-04T23:28:40.041Z,96624.94
2019-03-04T23:31:08.321Z,96614.73
2019-03-04T23:33:36.584Z,96612.98
2019-03-04T23:36:04.866Z,96624.81
2019-03-04T23:38:33.148Z,96635.19
2019-03-04T23:41:01.429Z,96643.00
2019-03-04T23:43:29.674Z,96652.90
2019-03-04T23:45:57.965Z,96657.61
2019-03-04T23:48:26.225Z,96667.59
2019-03-04T23:50:54.691Z,96667.58
2019-03-04T23:53:22.936Z,96689.62
2019-03-04T23:55:51.200Z,96697.80
2019-03-04T23:58:19.482Z,96712.98
